createdAt,value
2023-02-22T00:00:48.366Z,14.28
2023-02-22T00:03:26.967Z,17.12
2023-02-22T00:06:02.187Z,14.15
2023-02-22T00:08:36.252Z,12.55
2023-02-22T00:11:10.350Z,19.27
2023-02-22T00:13:43.539Z,11.20
2023-02-22T00:16:19.765Z,15.40
2023-02-22T00:18:54.733Z,16.65
2023-02-22T00:21:30.116Z,11.22
2023-02-22T00:24:08.074Z,19.52
2023-02-22T00:26:39.919Z,15.08
2023-02-22T00:29:11.911Z,16.32
2023-02-22T00:31:43.959Z,15.95
2023-02-22T00:34:17.538Z,13.10
2023-02-22T00:36:50.922Z,14.05
2023-02-22T00:39:22.955Z,13.48
2023-02-22T00:41:54.723Z,13.25
2023-02-22T00:44:30.601Z,16.12
2023-02-22T00:47:01.135Z,15.20
2023-02-22T00:49:33.781Z,15.40
2023-02-22T00:52:04.936Z,15.72
2023-02-22T00:54:36.018Z,14.65
2023-02-22T00:57:11.554Z,16.97
2023-02-22T00:59:46.199Z,13.38
2023-02-22T01:02:17.659Z,16.65
2023-02-22T01:04:48.863Z,15.48
2023-02-22T01:07:22.491Z,17.40
2023-02-22T01:09:53.927Z,10.75
2023-02-22T01:12:27.417Z,13.13
2023-02-22T01:14:58.194Z,17.02
2023-02-22T01:17:33.916Z,14.30
2023-02-22T01:20:05.155Z,11.50
2023-02-22T01:22:38.209Z,17.15
2023-02-22T01:25:12.083Z,13.50
2023-02-22T01:27:42.607Z,13.03
2023-02-22T01:30:17.775Z,13.78
2023-02-22T01:32:48.561Z,20.25
2023-02-22T01:35:21.687Z,13.90
2023-02-22T01:37:54.955Z,17.32
2023-02-22T01:40:30.003Z,15.80
2023-02-22T01:43:06.557Z,14.50
2023-02-22T01:45:48.329Z,14.25
2023-02-22T01:48:45.731Z,14.93
2023-02-22T01:51:22.703Z,16.32
2023-02-22T01:54:16.475Z,17.02
2023-02-22T01:56:54.075Z,15.18
2023-02-22T01:59:26.176Z,21.07
2023-02-22T02:02:00.253Z,13.38
2023-02-22T02:04:40.419Z,14.65
2023-02-22T02:07:17.499Z,15.50
2023-02-22T02:09:59.797Z,12.23
2023-02-22T02:12:33.507Z,15.63
2023-02-22T02:15:27.314Z,19.27
2023-02-22T02:18:04.137Z,17.70
2023-02-22T02:20:50.611Z,20.20
2023-02-22T02:23:25.192Z,16.95
2023-02-22T02:26:13.274Z,17.27
2023-02-22T02:28:56.861Z,20.00
2023-02-22T02:31:40.899Z,16.40
2023-02-22T02:34:23.829Z,11.10
2023-02-22T02:37:13.973Z,17.65
2023-02-22T02:39:54.615Z,13.90
2023-02-22T02:42:28.089Z,19.77
2023-02-22T02:45:05.310Z,12.98
2023-02-22T02:47:45.657Z,13.35
2023-02-22T02:50:33.789Z,11.57
2023-02-22T02:53:08.348Z,18.52
2023-02-22T02:55:41.072Z,16.27
2023-02-22T02:58:20.037Z,17.05
2023-02-22T03:00:57.593Z,15.23
2023-02-22T03:03:37.612Z,20.48
2023-02-22T03:06:35.466Z,12.73
2023-02-22T03:09:30.168Z,16.02
2023-02-22T03:12:24.713Z,14.05
2023-02-22T03:15:08.315Z,10.82
2023-02-22T03:17:53.806Z,11.83
2023-02-22T03:20:43.204Z,16.32
2023-02-22T03:23:25.804Z,12.25
2023-02-22T03:26:00.136Z,14.18
2023-02-22T03:28:32.816Z,15.93
2023-02-22T03:31:16.751Z,22.35
2023-02-22T03:33:55.048Z,22.32
2023-02-22T03:36:35.973Z,17.27
2023-02-22T03:39:09.499Z,16.82
2023-02-22T03:41:41.351Z,18.12
2023-02-22T03:44:17.645Z,14.95
2023-02-22T03:46:52.912Z,14.00
2023-02-22T03:49:36.554Z,18.55
2023-02-22T03:52:12.794Z,15.60
2023-02-22T03:54:45.442Z,14.28
2023-02-22T03:57:19.199Z,11.60
2023-02-22T03:59:53.802Z,12.53
2023-02-22T04:02:24.277Z,9.83
2023-02-22T04:04:56.488Z,17.77
2023-02-22T04:07:26.931Z,14.05
2023-02-22T04:09:58.585Z,21.73
2023-02-22T04:12:30.486Z,15.93
2023-02-22T04:15:04.296Z,13.72
2023-02-22T04:17:36.225Z,16.65
2023-02-22T04:20:07.331Z,17.80
2023-02-22T04:22:37.830Z,15.03
2023-02-22T04:25:08.927Z,10.53
2023-02-22T04:27:39.420Z,17.62
2023-02-22T04:30:11.108Z,18.12
2023-02-22T04:32:41.612Z,16.07
2023-02-22T04:35:14.777Z,15.98
2023-02-22T04:37:46.891Z,18.10
2023-02-22T04:40:18.262Z,13.95
2023-02-22T04:42:56.127Z,13.62
2023-02-22T04:45:28.174Z,16.85
2023-02-22T04:47:58.478Z,17.82
2023-02-22T04:50:31.525Z,18.50
2023-02-22T04:53:03.283Z,11.15
2023-02-22T04:55:34.544Z,17.00
2023-02-22T04:58:08.735Z,15.72
2023-02-22T05:00:40.981Z,15.70
2023-02-22T05:03:13.809Z,15.93
2023-02-22T05:05:44.783Z,11.33
2023-02-22T05:08:15.172Z,12.20
2023-02-22T05:10:46.829Z,22.87
2023-02-22T05:13:21.113Z,15.50
2023-02-22T05:15:53.302Z,16.07
2023-02-22T05:18:23.990Z,16.70
2023-02-22T05:20:57.145Z,17.27
2023-02-22T05:23:27.732Z,16.07
2023-02-22T05:25:58.371Z,19.37
2023-02-22T05:28:29.293Z,16.73
2023-02-22T05:30:59.820Z,16.10
2023-02-22T05:33:30.309Z,18.27
2023-02-22T05:36:01.899Z,17.82
2023-02-22T05:38:33.092Z,15.45
2023-02-22T05:41:04.421Z,18.17
2023-02-22T05:43:35.278Z,16.77
2023-02-22T05:46:08.551Z,19.60
2023-02-22T05:48:40.532Z,16.15
2023-02-22T05:51:11.329Z,14.50
2023-02-22T05:53:42.666Z,13.25
2023-02-22T05:56:13.158Z,16.73
2023-02-22T05:58:43.712Z,12.95
2023-02-22T06:01:16.625Z,26.33
2023-02-22T06:03:52.016Z,14.45
2023-02-22T06:06:22.737Z,17.12
2023-02-22T06:08:54.737Z,18.65
2023-02-22T06:11:27.119Z,16.70
2023-02-22T06:13:57.530Z,19.02
2023-02-22T06:16:29.893Z,15.88
2023-02-22T06:19:00.600Z,16.75
2023-02-22T06:21:31.345Z,14.95
2023-02-22T06:24:04.494Z,16.48
2023-02-22T06:26:36.453Z,16.50
2023-02-22T06:29:09.350Z,17.75
2023-02-22T06:31:40.045Z,14.73
2023-02-22T06:34:11.712Z,16.62
2023-02-22T06:36:44.687Z,16.27
2023-02-22T06:39:16.783Z,17.35
2023-02-22T06:41:52.184Z,15.60
2023-02-22T06:44:22.871Z,14.10
2023-02-22T06:46:54.508Z,24.50
2023-02-22T06:49:25.949Z,16.73
2023-02-22T06:51:57.457Z,23.27
2023-02-22T06:54:30.645Z,18.23
2023-02-22T06:57:01.409Z,11.57
2023-02-22T06:59:32.296Z,21.68
2023-02-22T07:02:05.614Z,18.52
2023-02-22T07:04:37.236Z,19.50
2023-02-22T07:07:07.941Z,22.93
2023-02-22T07:09:38.400Z,18.60
2023-02-22T07:12:09.174Z,23.25
2023-02-22T07:14:39.895Z,19.10
2023-02-22T07:17:11.513Z,20.02
2023-02-22T07:19:43.228Z,17.70
2023-02-22T07:22:14.059Z,18.05
2023-02-22T07:24:50.095Z,15.05
2023-02-22T07:27:20.617Z,22.77
2023-02-22T07:29:54.223Z,17.92
2023-02-22T07:32:24.867Z,19.07
2023-02-22T07:34:56.023Z,21.48
2023-02-22T07:37:26.529Z,23.47
2023-02-22T07:39:57.805Z,25.50
2023-02-22T07:42:28.397Z,21.57
2023-02-22T07:44:59.253Z,30.05
2023-02-22T07:47:31.355Z,18.17
2023-02-22T07:50:02.782Z,22.82
2023-02-22T07:52:34.291Z,22.13
2023-02-22T07:55:07.944Z,23.32
2023-02-22T07:57:40.146Z,22.13
2023-02-22T08:00:12.034Z,33.90
2023-02-22T08:02:51.234Z,32.25
2023-02-22T08:05:23.783Z,26.50
2023-02-22T08:07:54.478Z,24.87
2023-02-22T08:10:28.217Z,24.70
2023-02-22T08:13:02.762Z,23.00
2023-02-22T08:15:37.843Z,22.95
2023-02-22T08:18:15.007Z,22.25
2023-02-22T08:20:47.566Z,24.32
2023-02-22T08:23:26.458Z,23.52
2023-02-22T08:25:58.064Z,24.57
2023-02-22T08:28:29.543Z,25.92
2023-02-22T08:31:00.368Z,22.22
2023-02-22T08:33:31.658Z,28.87
2023-02-22T08:36:03.816Z,21.35
2023-02-22T08:38:38.328Z,21.62
2023-02-22T08:41:11.114Z,27.07
2023-02-22T08:43:41.645Z,25.50
2023-02-22T08:46:15.411Z,21.10
2023-02-22T08:48:53.053Z,22.93
2023-02-22T08:51:23.897Z,24.37
2023-02-22T08:53:58.956Z,24.60
2023-02-22T08:56:30.257Z,15.48
2023-02-22T08:59:02.173Z,24.02
2023-02-22T09:01:35.342Z,17.57
2023-02-22T09:04:06.359Z,18.32
2023-02-22T09:06:37.564Z,16.73
2023-02-22T09:09:13.712Z,19.48
2023-02-22T09:11:44.459Z,18.50
2023-02-22T09:14:17.939Z,18.35
2023-02-22T09:16:49.603Z,17.57
2023-02-22T09:19:20.455Z,16.70
2023-02-22T09:22:00.401Z,14.53
2023-02-22T09:24:31.345Z,17.15
2023-02-22T09:27:04.605Z,23.57
2023-02-22T09:29:36.843Z,20.72
2023-02-22T09:32:07.885Z,16.87
2023-02-22T09:34:39.453Z,17.30
2023-02-22T09:37:10.448Z,15.98
2023-02-22T09:39:42.005Z,22.60
2023-02-22T09:42:21.430Z,15.08
2023-02-22T09:45:06.640Z,12.80
2023-02-22T09:47:45.322Z,13.60
2023-02-22T09:50:23.590Z,15.72
2023-02-22T09:53:19.717Z,14.40
2023-02-22T09:55:53.060Z,19.25
2023-02-22T09:58:39.729Z,15.38
2023-02-22T10:01:27.191Z,22.42
2023-02-22T10:04:29.331Z,15.83
2023-02-22T10:07:08.428Z,17.05
2023-02-22T10:09:43.685Z,19.23
2023-02-22T10:12:17.280Z,18.17
2023-02-22T10:14:56.565Z,17.00
2023-02-22T10:17:40.300Z,13.90
2023-02-22T10:20:24.094Z,15.15
2023-02-22T10:23:12.215Z,17.42
2023-02-22T10:25:47.186Z,18.17
2023-02-22T10:28:21.277Z,17.60
2023-02-22T10:30:59.155Z,12.85
2023-02-22T10:33:34.431Z,16.25
2023-02-22T10:36:06.293Z,16.12
2023-02-22T10:38:40.340Z,15.70
2023-02-22T10:41:14.518Z,14.47
2023-02-22T10:43:46.303Z,15.95
2023-02-22T10:46:20.290Z,22.05
2023-02-22T10:48:54.651Z,18.82
2023-02-22T10:51:26.618Z,14.65
2023-02-22T10:54:27.001Z,14.80
2023-02-22T10:57:04.476Z,12.80
2023-02-22T10:59:37.950Z,10.48
2023-02-22T11:02:20.755Z,12.80
2023-02-22T11:04:54.202Z,12.60
2023-02-22T11:07:33.726Z,15.08
2023-02-22T11:10:09.759Z,17.35
2023-02-22T11:12:43.880Z,16.80
2023-02-22T11:15:23.234Z,14.33
2023-02-22T11:17:58.574Z,21.73
2023-02-22T11:20:33.626Z,9.63
2023-02-22T11:23:08.653Z,13.13
2023-02-22T11:25:43.838Z,16.70
2023-02-22T11:28:33.567Z,13.43
2023-02-22T11:31:17.325Z,11.63
2023-02-22T11:33:57.655Z,16.30
2023-02-22T11:36:38.894Z,17.02
2023-02-22T11:39:28.655Z,14.47
2023-02-22T11:41:59.153Z,18.45
2023-02-22T11:44:34.213Z,12.55
2023-02-22T11:47:09.157Z,13.40
2023-02-22T11:49:42.756Z,13.95
2023-02-22T11:52:35.231Z,15.60
2023-02-22T11:55:40.121Z,14.55
2023-02-22T11:58:01.680Z,19.15
2023-02-22T12:00:44.089Z,17.02
2023-02-22T12:03:46.442Z,13.75
2023-02-22T12:06:24.447Z,13.13
2023-02-22T12:09:18.493Z,14.30
2023-02-22T12:12:06.775Z,13.30
2023-02-22T12:14:46.153Z,9.73
2023-02-22T12:17:23.480Z,11.43
2023-02-22T12:19:57.045Z,13.68
2023-02-22T12:22:37.979Z,13.68
2023-02-22T12:25:20.797Z,13.08
2023-02-22T12:28:00.219Z,14.40
2023-02-22T12:30:38.701Z,14.73
2023-02-22T12:33:14.815Z,16.60
2023-02-22T12:35:51.029Z,9.95
2023-02-22T12:38:26.040Z,16.00
2023-02-22T12:41:18.448Z,16.10
2023-02-22T12:43:56.217Z,16.37
2023-02-22T12:46:39.989Z,10.35
2023-02-22T12:49:31.213Z,15.78
2023-02-22T12:52:22.019Z,15.90
2023-02-22T12:54:57.833Z,14.03
2023-02-22T12:58:04.567Z,14.75
2023-02-22T13:00:54.924Z,13.00
2023-02-22T13:03:40.149Z,13.98
2023-02-22T13:06:25.773Z,12.23
2023-02-22T13:09:15.186Z,12.98
2023-02-22T13:12:07.521Z,12.07
2023-02-22T13:14:41.419Z,10.78
2023-02-22T13:17:42.713Z,10.18
2023-02-22T13:20:31.388Z,13.32
2023-02-22T13:23:12.352Z,14.18
2023-02-22T13:26:03.650Z,10.65
2023-02-22T13:28:46.417Z,11.70
2023-02-22T13:31:21.108Z,8.75
2023-02-22T13:34:17.860Z,11.35
2023-02-22T13:37:06.398Z,13.22
2023-02-22T13:39:45.732Z,9.50
2023-02-22T13:42:35.617Z,12.70
2023-02-22T13:45:37.676Z,14.10
2023-02-22T13:48:22.726Z,13.55
2023-02-22T13:50:58.805Z,10.18
2023-02-22T13:53:35.040Z,8.33
2023-02-22T13:56:08.758Z,12.23
2023-02-22T13:59:02.803Z,9.28
2023-02-22T14:01:49.212Z,10.23
2023-02-22T14:04:29.275Z,12.45
2023-02-22T14:07:12.481Z,13.60
2023-02-22T14:09:51.285Z,12.10
2023-02-22T14:12:34.781Z,12.98
2023-02-22T14:15:29.818Z,8.55
2023-02-22T14:18:09.287Z,9.33
2023-02-22T14:20:42.442Z,10.50
2023-02-22T14:23:31.484Z,11.20
2023-02-22T14:26:30.236Z,14.28
2023-02-22T14:29:18.560Z,18.10
2023-02-22T14:31:52.180Z,12.13
2023-02-22T14:34:53.299Z,16.05
2023-02-22T14:37:39.265Z,13.75
2023-02-22T14:40:24.631Z,16.55
2023-02-22T14:43:07.329Z,10.90
2023-02-22T14:45:45.437Z,13.65
2023-02-22T14:48:25.212Z,12.07
2023-02-22T14:51:20.769Z,9.28
2023-02-22T14:53:46.632Z,12.15
2023-02-22T14:56:25.615Z,9.63
2023-02-22T14:59:25.194Z,13.25
2023-02-22T15:02:19.909Z,9.78
2023-02-22T15:04:56.709Z,11.80
2023-02-22T15:07:32.008Z,15.58
2023-02-22T15:10:27.751Z,12.58
2023-02-22T15:13:13.142Z,10.80
2023-02-22T15:15:49.098Z,9.88
2023-02-22T15:18:32.427Z,13.35
2023-02-22T15:21:13.605Z,14.03
2023-02-22T15:23:59.268Z,11.38
2023-02-22T15:26:39.708Z,11.75
2023-02-22T15:29:19.273Z,11.03
2023-02-22T15:31:53.022Z,11.00
2023-02-22T15:34:27.091Z,11.28
2023-02-22T15:37:00.542Z,11.97
2023-02-22T15:39:38.878Z,14.68
2023-02-22T15:42:22.961Z,11.18
2023-02-22T15:44:56.081Z,12.45
2023-02-22T15:47:32.987Z,16.97
2023-02-22T15:50:27.316Z,14.50
2023-02-22T15:53:12.172Z,11.15
2023-02-22T15:55:49.539Z,13.18
2023-02-22T15:58:30.210Z,10.60
2023-02-22T16:01:17.717Z,15.93
2023-02-22T16:03:51.297Z,16.27
2023-02-22T16:06:40.305Z,13.43
2023-02-22T16:09:16.587Z,11.15
2023-02-22T16:11:49.646Z,13.22
2023-02-22T16:14:42.628Z,9.65
2023-02-22T16:17:15.768Z,12.00
2023-02-22T16:19:49.717Z,13.45
2023-02-22T16:22:32.305Z,10.60
2023-02-22T16:25:28.633Z,11.97
2023-02-22T16:28:04.001Z,10.25
2023-02-22T16:30:42.203Z,12.60
2023-02-22T16:33:15.071Z,16.15
2023-02-22T16:35:50.742Z,14.15
2023-02-22T16:38:22.680Z,13.58
2023-02-22T16:40:56.060Z,12.45
2023-02-22T16:43:32.052Z,12.47
2023-02-22T16:46:04.366Z,11.80
2023-02-22T16:48:40.083Z,12.37
2023-02-22T16:51:18.361Z,15.28
2023-02-22T16:53:50.743Z,7.67
2023-02-22T16:56:26.328Z,15.95
2023-02-22T16:58:58.558Z,13.05
2023-02-22T17:01:31.049Z,12.80
2023-02-22T17:04:02.954Z,10.50
2023-02-22T17:06:33.698Z,14.13
2023-02-22T17:09:05.602Z,11.88
2023-02-22T17:11:37.990Z,10.82
2023-02-22T17:14:10.027Z,11.05
2023-02-22T17:16:41.015Z,11.03
2023-02-22T17:19:17.475Z,12.98
2023-02-22T17:21:49.813Z,12.10
2023-02-22T17:24:27.758Z,14.13
2023-02-22T17:26:59.830Z,11.70
2023-02-22T17:29:31.655Z,8.70
2023-02-22T17:32:02.825Z,9.98
2023-02-22T17:34:36.468Z,12.25
2023-02-22T17:37:07.383Z,14.07
2023-02-22T17:39:39.543Z,10.65
2023-02-22T17:42:14.188Z,11.70
2023-02-22T17:44:45.073Z,8.18
2023-02-22T17:47:17.909Z,12.98
2023-02-22T17:49:49.032Z,11.60
2023-02-22T17:52:21.618Z,12.82
2023-02-22T17:54:53.579Z,11.25
2023-02-22T17:57:25.560Z,12.80
2023-02-22T17:59:57.178Z,10.63
2023-02-22T18:02:28.570Z,14.07
2023-02-22T18:04:59.090Z,10.10
2023-02-22T18:07:32.433Z,12.85
2023-02-22T18:10:05.980Z,15.20
2023-02-22T18:12:40.567Z,11.25
2023-02-22T18:15:12.233Z,13.03
2023-02-22T18:17:44.905Z,11.40
2023-02-22T18:20:18.703Z,8.60
2023-02-22T18:22:50.474Z,11.65
2023-02-22T18:25:25.756Z,11.12
2023-02-22T18:27:56.830Z,9.03
2023-02-22T18:30:30.603Z,9.15
2023-02-22T18:33:03.604Z,9.70
2023-02-22T18:35:35.979Z,9.63
2023-02-22T18:38:12.431Z,8.05
2023-02-22T18:40:44.871Z,8.50
2023-02-22T18:43:20.907Z,9.55
2023-02-22T18:45:55.061Z,10.80
2023-02-22T18:48:27.908Z,13.07
2023-02-22T18:51:02.232Z,9.33
2023-02-22T18:53:36.479Z,10.23
2023-02-22T18:56:09.222Z,8.90
2023-02-22T18:58:42.304Z,13.62
2023-02-22T19:01:20.645Z,10.08
2023-02-22T19:03:51.966Z,5.85
2023-02-22T19:06:25.124Z,9.65
2023-02-22T19:08:56.694Z,8.00
2023-02-22T19:11:29.609Z,6.25
2023-02-22T19:14:00.558Z,8.60
2023-02-22T19:16:31.997Z,8.50
2023-02-22T19:19:05.425Z,5.42
2023-02-22T19:21:37.645Z,8.28
2023-02-22T19:24:09.908Z,13.00
2023-02-22T19:26:43.778Z,11.63
2023-02-22T19:29:14.387Z,10.60
2023-02-22T19:31:48.470Z,7.30
2023-02-22T19:34:24.191Z,7.42
2023-02-22T19:36:55.901Z,9.23
2023-02-22T19:39:28.920Z,12.47
2023-02-22T19:42:00.596Z,9.18
2023-02-22T19:44:31.085Z,8.40
2023-02-22T19:47:05.265Z,11.00
2023-02-22T19:49:40.374Z,10.08
2023-02-22T19:52:12.105Z,10.15
2023-02-22T19:54:42.904Z,10.82
2023-02-22T19:57:14.166Z,9.10
2023-02-22T19:59:44.987Z,7.35
2023-02-22T20:02:17.833Z,6.03
2023-02-22T20:04:50.278Z,7.30
2023-02-22T20:07:21.326Z,10.65
2023-02-22T20:09:52.493Z,14.15
2023-02-22T20:12:24.313Z,10.08
2023-02-22T20:14:58.476Z,12.13
2023-02-22T20:17:29.313Z,6.37
2023-02-22T20:20:00.113Z,12.07
2023-02-22T20:22:30.659Z,12.03
2023-02-22T20:25:02.507Z,11.60
2023-02-22T20:27:37.092Z,12.80
2023-02-22T20:30:09.214Z,8.43
2023-02-22T20:32:42.027Z,8.90
2023-02-22T20:35:12.837Z,8.93
2023-02-22T20:37:43.652Z,12.43
2023-02-22T20:40:15.295Z,9.28
2023-02-22T20:42:55.295Z,11.70
2023-02-22T20:45:22.584Z,9.20
2023-02-22T20:47:54.823Z,11.75
2023-02-22T20:50:26.685Z,13.32
2023-02-22T20:52:58.925Z,11.00
2023-02-22T20:55:31.249Z,10.35
2023-02-22T20:58:01.997Z,9.55
2023-02-22T21:00:35.562Z,15.50
2023-02-22T21:03:06.440Z,10.70
2023-02-22T21:05:43.072Z,13.53
2023-02-22T21:08:16.354Z,12.30
2023-02-22T21:10:53.482Z,15.43
2023-02-22T21:13:24.625Z,16.23
2023-02-22T21:15:58.051Z,14.25
2023-02-22T21:18:30.100Z,14.33
2023-02-22T21:21:10.636Z,9.67
2023-02-22T21:23:44.594Z,13.05
2023-02-22T21:26:18.950Z,12.28
2023-02-22T21:28:51.843Z,10.38
2023-02-22T21:31:25.359Z,12.40
2023-02-22T21:33:59.784Z,14.95
2023-02-22T21:36:31.811Z,16.05
2023-02-22T21:39:15.190Z,13.30
2023-02-22T21:41:48.051Z,13.58
2023-02-22T21:44:22.702Z,14.43
2023-02-22T21:46:57.760Z,14.97
2023-02-22T21:49:32.948Z,13.00
2023-02-22T21:52:05.647Z,13.93
2023-02-22T21:54:36.178Z,17.55
2023-02-22T21:57:10.666Z,15.30
2023-02-22T21:59:42.527Z,15.05
2023-02-22T22:02:14.566Z,12.88
2023-02-22T22:04:46.615Z,16.30
2023-02-22T22:07:20.799Z,16.07
2023-02-22T22:09:53.164Z,18.02
2023-02-22T22:12:34.135Z,15.60
2023-02-22T22:15:01.576Z,17.20
2023-02-22T22:17:36.585Z,15.53
2023-02-22T22:20:11.319Z,15.18
2023-02-22T22:22:47.453Z,18.52
2023-02-22T22:25:20.124Z,17.00
2023-02-22T22:27:52.408Z,17.02
2023-02-22T22:30:23.561Z,19.03
2023-02-22T22:32:54.234Z,15.13
2023-02-22T22:35:27.192Z,19.75
2023-02-22T22:37:59.806Z,14.47
2023-02-22T22:40:32.596Z,14.35
2023-02-22T22:43:04.233Z,21.23
2023-02-22T22:45:36.375Z,22.20
2023-02-22T22:48:08.726Z,20.05
2023-02-22T22:50:39.328Z,16.70
2023-02-22T22:53:11.104Z,20.08
2023-02-22T22:55:43.029Z,19.83
2023-02-22T22:58:14.540Z,18.27
2023-02-22T23:00:46.254Z,19.57
2023-02-22T23:03:18.757Z,20.97
2023-02-22T23:05:50.176Z,19.15
2023-02-22T23:08:22.536Z,16.42
2023-02-22T23:10:54.972Z,23.87
2023-02-22T23:13:25.757Z,20.15
2023-02-22T23:15:57.610Z,17.02
2023-02-22T23:18:28.671Z,19.75
2023-02-22T23:21:04.378Z,18.92
2023-02-22T23:23:34.881Z,22.47
2023-02-22T23:26:15.708Z,23.90
2023-02-22T23:28:48.618Z,20.90
2023-02-22T23:31:19.591Z,24.37
2023-02-22T23:33:50.811Z,18.50
2023-02-22T23:36:21.613Z,22.82
2023-02-22T23:38:52.264Z,20.55
2023-02-22T23:41:24.649Z,22.10
2023-02-22T23:43:56.210Z,19.10
2023-02-22T23:46:27.540Z,22.47
2023-02-22T23:48:59.878Z,22.87
2023-02-22T23:51:33.483Z,26.70
2023-02-22T23:54:04.018Z,19.73
2023-02-22T23:56:35.467Z,26.82
2023-02-22T23:59:09.318Z,21.73
